sensor_id;sensor_type;location;lat;lon;timestamp;temperature;humidity
3876;DHT22;1953;51.222;6.624;2023-04-01T00:03:55;11.50;1.00
3876;DHT22;1953;51.222;6.624;2023-04-01T00:10:33;11.40;1.00
3876;DHT22;1953;51.222;6.624;2023-04-01T00:15:16;11.30;1.00
3876;DHT22;1953;51.222;6.624;2023-04-01T00:19:58;11.20;1.00
3876;DHT22;1953;51.222;6.624;2023-04-01T00:24:41;11.20;1.00
3876;DHT22;1953;51.222;6.624;2023-04-01T00:29:25;11.30;1.00
3876;DHT22;1953;51.222;6.624;2023-04-01T00:34:10;11.80;1.00
3876;DHT22;1953;51.222;6.624;2023-04-01T00:38:52;11.20;1.00
3876;DHT22;1953;51.222;6.624;2023-04-01T00:43:35;11.20;1.00
3876;DHT22;1953;51.222;6.624;2023-04-01T00:48:23;11.20;1.00
3876;DHT22;1953;51.222;6.624;2023-04-01T00:53:07;11.20;1.00
3876;DHT22;1953;51.222;6.624;2023-04-01T00:57:51;11.20;1.00
3876;DHT22;1953;51.222;6.624;2023-04-01T01:02:35;11.20;1.00
3876;DHT22;1953;51.222;6.624;2023-04-01T01:07:27;11.20;1.00
3876;DHT22;1953;51.222;6.624;2023-04-01T01:12:14;11.20;1.00
3876;DHT22;1953;51.222;6.624;2023-04-01T01:17:04;11.20;1.00
3876;DHT22;1953;51.222;6.624;2023-04-01T01:22:11;11.20;1.00
3876;DHT22;1953;51.222;6.624;2023-04-01T01:27:03;11.20;1.00
3876;DHT22;1953;51.222;6.624;2023-04-01T01:31:54;11.20;1.00
3876;DHT22;1953;51.222;6.624;2023-04-01T01:36:44;11.20;1.00
3876;DHT22;1953;51.222;6.624;2023-04-01T01:41:29;11.20;1.00
3876;DHT22;1953;51.222;6.624;2023-04-01T01:46:15;11.30;1.00
3876;DHT22;1953;51.222;6.624;2023-04-01T01:50:59;11.20;1.00
3876;DHT22;1953;51.222;6.624;2023-04-01T01:55:45;11.20;1.00
3876;DHT22;1953;51.222;6.624;2023-04-01T02:00:28;11.20;1.00
3876;DHT22;1953;51.222;6.624;2023-04-01T02:05:16;11.10;1.00
3876;DHT22;1953;51.222;6.624;2023-04-01T02:10:00;11.10;1.00
3876;DHT22;1953;51.222;6.624;2023-04-01T02:14:47;11.10;1.00
3876;DHT22;1953;51.222;6.624;2023-04-01T02:19:36;11.10;1.00
3876;DHT22;1953;51.222;6.624;2023-04-01T02:24:20;11.10;1.00
3876;DHT22;1953;51.222;6.624;2023-04-01T02:29:08;11.10;1.00
3876;DHT22;1953;51.222;6.624;2023-04-01T02:33:54;11.00;1.00
3876;DHT22;1953;51.222;6.624;2023-04-01T02:38:37;11.00;1.00
3876;DHT22;1953;51.222;6.624;2023-04-01T02:43:20;11.00;1.00
3876;DHT22;1953;51.222;6.624;2023-04-01T02:47:49;10.90;1.00
3876;DHT22;1953;51.222;6.624;2023-04-01T02:52:33;10.90;1.00
3876;DHT22;1953;51.222;6.624;2023-04-01T02:57:15;10.90;1.00
3876;DHT22;1953;51.222;6.624;2023-04-01T03:01:58;10.90;1.00
3876;DHT22;1953;51.222;6.624;2023-04-01T03:06:40;10.90;1.00
3876;DHT22;1953;51.222;6.624;2023-04-01T03:11:24;10.90;1.00
3876;DHT22;1953;51.222;6.624;2023-04-01T03:16:07;11.00;1.00
3876;DHT22;1953;51.222;6.624;2023-04-01T03:20:50;11.80;1.00
3876;DHT22;1953;51.222;6.624;2023-04-01T03:25:33;11.00;1.00
3876;DHT22;1953;51.222;6.624;2023-04-01T03:30:17;11.00;1.00
3876;DHT22;1953;51.222;6.624;2023-04-01T03:34:59;11.00;1.00
3876;DHT22;1953;51.222;6.624;2023-04-01T03:39:42;11.00;1.00
3876;DHT22;1953;51.222;6.624;2023-04-01T03:44:25;11.00;1.00
3876;DHT22;1953;51.222;6.624;2023-04-01T03:49:09;11.00;1.00
3876;DHT22;1953;51.222;6.624;2023-04-01T03:53:52;11.00;1.00
3876;DHT22;1953;51.222;6.624;2023-04-01T03:58:36;11.00;1.00
3876;DHT22;1953;51.222;6.624;2023-04-01T04:03:19;11.00;1.00
3876;DHT22;1953;51.222;6.624;2023-04-01T04:08:03;11.00;1.00
3876;DHT22;1953;51.222;6.624;2023-04-01T04:12:46;11.00;1.00
3876;DHT22;1953;51.222;6.624;2023-04-01T04:17:29;11.00;1.00
3876;DHT22;1953;51.222;6.624;2023-04-01T04:22:11;11.00;1.00
3876;DHT22;1953;51.222;6.624;2023-04-01T04:26:55;11.00;1.00
3876;DHT22;1953;51.222;6.624;2023-04-01T04:31:37;11.00;1.00
3876;DHT22;1953;51.222;6.624;2023-04-01T04:36:21;11.00;1.00
3876;DHT22;1953;51.222;6.624;2023-04-01T04:41:08;11.10;1.00
3876;DHT22;1953;51.222;6.624;2023-04-01T04:45:52;11.10;1.00
3876;DHT22;1953;51.222;6.624;2023-04-01T04:50:35;11.00;1.00
3876;DHT22;1953;51.222;6.624;2023-04-01T04:55:18;11.00;1.00
3876;DHT22;1953;51.222;6.624;2023-04-01T05:00:00;11.00;1.00
3876;DHT22;1953;51.222;6.624;2023-04-01T05:04:44;11.00;1.00
3876;DHT22;1953;51.222;6.624;2023-04-01T05:09:27;11.00;1.00
3876;DHT22;1953;51.222;6.624;2023-04-01T05:14:12;11.00;1.00
3876;DHT22;1953;51.222;6.624;2023-04-01T05:18:55;11.00;1.00
3876;DHT22;1953;51.222;6.624;2023-04-01T05:23:39;10.90;1.00
3876;DHT22;1953;51.222;6.624;2023-04-01T05:28:22;11.00;1.00
3876;DHT22;1953;51.222;6.624;2023-04-01T05:33:04;11.00;1.00
3876;DHT22;1953;51.222;6.624;2023-04-01T05:37:47;11.00;1.00
3876;DHT22;1953;51.222;6.624;2023-04-01T05:42:31;10.90;1.00
3876;DHT22;1953;51.222;6.624;2023-04-01T05:47:13;11.00;1.00
3876;DHT22;1953;51.222;6.624;2023-04-01T05:51:56;10.90;1.00
3876;DHT22;1953;51.222;6.624;2023-04-01T05:56:39;11.00;1.00
3876;DHT22;1953;51.222;6.624;2023-04-01T06:01:23;10.90;1.00
3876;DHT22;1953;51.222;6.624;2023-04-01T06:06:11;11.00;1.00
3876;DHT22;1953;51.222;6.624;2023-04-01T06:11:04;10.90;1.00
3876;DHT22;1953;51.222;6.624;2023-04-01T06:15:55;11.00;1.00
3876;DHT22;1953;51.222;6.624;2023-04-01T06:20:47;11.00;1.00
3876;DHT22;1953;51.222;6.624;2023-04-01T06:25:49;11.00;1.00
3876;DHT22;1953;51.222;6.624;2023-04-01T06:30:38;11.00;1.00
3876;DHT22;1953;51.222;6.624;2023-04-01T06:35:43;11.00;1.00
3876;DHT22;1953;51.222;6.624;2023-04-01T06:40:48;11.00;1.00
3876;DHT22;1953;51.222;6.624;2023-04-01T06:45:39;11.10;1.00
3876;DHT22;1953;51.222;6.624;2023-04-01T06:50:30;11.00;1.00
3876;DHT22;1953;51.222;6.624;2023-04-01T06:55:24;11.00;1.00
3876;DHT22;1953;51.222;6.624;2023-04-01T07:00:13;11.00;1.00
3876;DHT22;1953;51.222;6.624;2023-04-01T07:04:59;11.00;1.00
3876;DHT22;1953;51.222;6.624;2023-04-01T07:09:48;11.00;1.00
3876;DHT22;1953;51.222;6.624;2023-04-01T07:14:36;11.10;1.00
3876;DHT22;1953;51.222;6.624;2023-04-01T07:19:23;11.20;1.00
3876;DHT22;1953;51.222;6.624;2023-04-01T07:24:11;11.10;1.00
3876;DHT22;1953;51.222;6.624;2023-04-01T07:28:57;11.10;1.00
3876;DHT22;1953;51.222;6.624;2023-04-01T07:33:45;11.10;1.00
3876;DHT22;1953;51.222;6.624;2023-04-01T07:38:35;11.10;1.00
3876;DHT22;1953;51.222;6.624;2023-04-01T07:43:41;11.10;1.00
3876;DHT22;1953;51.222;6.624;2023-04-01T07:48:29;11.10;1.00
3876;DHT22;1953;51.222;6.624;2023-04-01T07:53:21;11.20;1.00
3876;DHT22;1953;51.222;6.624;2023-04-01T07:58:11;11.20;1.00
3876;DHT22;1953;51.222;6.624;2023-04-01T08:03:13;11.20;1.00
3876;DHT22;1953;51.222;6.624;2023-04-01T08:08:05;11.20;1.00
3876;DHT22;1953;51.222;6.624;2023-04-01T08:13:02;11.30;1.00
3876;DHT22;1953;51.222;6.624;2023-04-01T08:18:00;11.30;1.00
3876;DHT22;1953;51.222;6.624;2023-04-01T08:22:50;11.40;1.00
3876;DHT22;1953;51.222;6.624;2023-04-01T08:27:36;11.30;1.00
3876;DHT22;1953;51.222;6.624;2023-04-01T08:32:25;11.30;1.00
3876;DHT22;1953;51.222;6.624;2023-04-01T08:37:10;11.20;1.00
3876;DHT22;1953;51.222;6.624;2023-04-01T08:52:26;11.30;1.00
3876;DHT22;1953;51.222;6.624;2023-04-01T08:57:21;11.40;1.00
3876;DHT22;1953;51.222;6.624;2023-04-01T09:02:27;11.50;1.00
3876;DHT22;1953;51.222;6.624;2023-04-01T09:07:32;11.50;1.00
3876;DHT22;1953;51.222;6.624;2023-04-01T09:12:35;11.50;1.00
3876;DHT22;1953;51.222;6.624;2023-04-01T09:23:02;11.50;1.00
3876;DHT22;1953;51.222;6.624;2023-04-01T09:27:56;11.50;1.00
3876;DHT22;1953;51.222;6.624;2023-04-01T09:38:17;11.40;1.00
3876;DHT22;1953;51.222;6.624;2023-04-01T09:43:16;11.50;1.00
3876;DHT22;1953;51.222;6.624;2023-04-01T09:48:11;11.60;1.00
3876;DHT22;1953;51.222;6.624;2023-04-01T09:53:07;11.60;1.00
3876;DHT22;1953;51.222;6.624;2023-04-01T09:58:29;11.60;1.00
3876;DHT22;1953;51.222;6.624;2023-04-01T10:03:36;11.70;1.00
3876;DHT22;1953;51.222;6.624;2023-04-01T10:14:18;11.70;1.00
3876;DHT22;1953;51.222;6.624;2023-04-01T10:19:39;11.70;1.00
3876;DHT22;1953;51.222;6.624;2023-04-01T10:24:56;11.70;1.00
3876;DHT22;1953;51.222;6.624;2023-04-01T10:35:23;11.80;1.00
3876;DHT22;1953;51.222;6.624;2023-04-01T10:40:37;11.90;1.00
3876;DHT22;1953;51.222;6.624;2023-04-01T10:45:46;11.90;1.00
3876;DHT22;1953;51.222;6.624;2023-04-01T10:50:58;11.90;1.00
3876;DHT22;1953;51.222;6.624;2023-04-01T11:01:42;12.00;1.00
3876;DHT22;1953;51.222;6.624;2023-04-01T11:07:12;12.00;1.00
3876;DHT22;1953;51.222;6.624;2023-04-01T11:12:15;11.80;1.00
3876;DHT22;1953;51.222;6.624;2023-04-01T11:17:32;11.90;1.00
3876;DHT22;1953;51.222;6.624;2023-04-01T11:27:44;11.90;1.00
3876;DHT22;1953;51.222;6.624;2023-04-01T11:32:44;11.90;1.00
3876;DHT22;1953;51.222;6.624;2023-04-01T11:37:37;11.90;1.00
3876;DHT22;1953;51.222;6.624;2023-04-01T11:42:30;12.00;1.00
3876;DHT22;1953;51.222;6.624;2023-04-01T11:52:57;11.80;1.00
3876;DHT22;1953;51.222;6.624;2023-04-01T11:57:56;12.00;1.00
3876;DHT22;1953;51.222;6.624;2023-04-01T12:02:50;12.00;1.00
3876;DHT22;1953;51.222;6.624;2023-04-01T12:11:38;11.90;1.00
3876;DHT22;1953;51.222;6.624;2023-04-01T12:16:33;11.90;1.00
3876;DHT22;1953;51.222;6.624;2023-04-01T12:21:25;11.90;1.00
3876;DHT22;1953;51.222;6.624;2023-04-01T12:26:22;12.00;1.00
3876;DHT22;1953;51.222;6.624;2023-04-01T12:31:19;12.00;1.00
3876;DHT22;1953;51.222;6.624;2023-04-01T12:36:12;12.00;1.00
3876;DHT22;1953;51.222;6.624;2023-04-01T12:41:09;12.10;1.00
3876;DHT22;1953;51.222;6.624;2023-04-01T12:45:58;12.10;1.00
3876;DHT22;1953;51.222;6.624;2023-04-01T12:51:16;12.20;1.00
3876;DHT22;1953;51.222;6.624;2023-04-01T12:56:02;12.40;1.00
3876;DHT22;1953;51.222;6.624;2023-04-01T13:01:03;12.40;1.00
3876;DHT22;1953;51.222;6.624;2023-04-01T13:06:13;12.40;1.00
3876;DHT22;1953;51.222;6.624;2023-04-01T13:11:08;12.50;1.00
3876;DHT22;1953;51.222;6.624;2023-04-01T13:15:52;12.70;1.00
3876;DHT22;1953;51.222;6.624;2023-04-01T13:20:44;12.80;1.00
3876;DHT22;1953;51.222;6.624;2023-04-01T13:25:37;12.70;1.00
3876;DHT22;1953;51.222;6.624;2023-04-01T13:30:25;12.70;1.00
3876;DHT22;1953;51.222;6.624;2023-04-01T13:35:17;12.70;1.00
3876;DHT22;1953;51.222;6.624;2023-04-01T13:40:26;12.60;1.00
3876;DHT22;1953;51.222;6.624;2023-04-01T13:45:16;12.60;1.00
3876;DHT22;1953;51.222;6.624;2023-04-01T13:55:34;12.60;1.00
3876;DHT22;1953;51.222;6.624;2023-04-01T14:00:35;12.50;1.00
3876;DHT22;1953;51.222;6.624;2023-04-01T14:05:44;12.70;1.00
3876;DHT22;1953;51.222;6.624;2023-04-01T14:10:36;12.60;1.00
3876;DHT22;1953;51.222;6.624;2023-04-01T14:15:44;12.70;1.00
3876;DHT22;1953;51.222;6.624;2023-04-01T14:20:37;12.80;1.00
3876;DHT22;1953;51.222;6.624;2023-04-01T14:25:41;12.70;1.00
3876;DHT22;1953;51.222;6.624;2023-04-01T14:30:38;13.00;1.00
3876;DHT22;1953;51.222;6.624;2023-04-01T14:35:33;13.40;1.00
3876;DHT22;1953;51.222;6.624;2023-04-01T14:40:28;13.60;1.00
3876;DHT22;1953;51.222;6.624;2023-04-01T14:45:26;13.40;1.00
3876;DHT22;1953;51.222;6.624;2023-04-01T14:50:20;13.30;1.00
3876;DHT22;1953;51.222;6.624;2023-04-01T14:55:27;13.00;1.00
3876;DHT22;1953;51.222;6.624;2023-04-01T15:00:14;12.90;1.00
3876;DHT22;1953;51.222;6.624;2023-04-01T15:05:02;12.80;1.00
3876;DHT22;1953;51.222;6.624;2023-04-01T15:09:56;12.70;1.00
3876;DHT22;1953;51.222;6.624;2023-04-01T15:14:50;12.70;1.00
3876;DHT22;1953;51.222;6.624;2023-04-01T15:19:42;12.70;1.00
3876;DHT22;1953;51.222;6.624;2023-04-01T15:24:40;12.60;1.00
3876;DHT22;1953;51.222;6.624;2023-04-01T15:29:39;12.50;1.00
3876;DHT22;1953;51.222;6.624;2023-04-01T15:34:32;12.50;1.00
3876;DHT22;1953;51.222;6.624;2023-04-01T15:39:21;12.40;1.00
3876;DHT22;1953;51.222;6.624;2023-04-01T15:44:32;12.30;1.00
3876;DHT22;1953;51.222;6.624;2023-04-01T15:49:24;12.30;1.00
3876;DHT22;1953;51.222;6.624;2023-04-01T15:54:24;12.30;1.00
3876;DHT22;1953;51.222;6.624;2023-04-01T15:59:17;12.40;1.00
3876;DHT22;1953;51.222;6.624;2023-04-01T16:04:19;12.20;1.00
3876;DHT22;1953;51.222;6.624;2023-04-01T16:09:24;12.20;1.00
3876;DHT22;1953;51.222;6.624;2023-04-01T16:14:18;12.20;1.00
3876;DHT22;1953;51.222;6.624;2023-04-01T16:19:29;12.10;1.00
3876;DHT22;1953;51.222;6.624;2023-04-01T16:24:19;12.10;1.00
3876;DHT22;1953;51.222;6.624;2023-04-01T16:29:11;12.00;1.00
3876;DHT22;1953;51.222;6.624;2023-04-01T16:33:58;12.00;1.00
3876;DHT22;1953;51.222;6.624;2023-04-01T16:38:50;12.00;1.00
3876;DHT22;1953;51.222;6.624;2023-04-01T16:43:40;11.90;1.00
3876;DHT22;1953;51.222;6.624;2023-04-01T16:48:49;11.80;1.00
3876;DHT22;1953;51.222;6.624;2023-04-01T16:53:40;11.80;1.00
3876;DHT22;1953;51.222;6.624;2023-04-01T16:58:27;11.70;1.00
3876;DHT22;1953;51.222;6.624;2023-04-01T17:03:13;11.70;1.00
3876;DHT22;1953;51.222;6.624;2023-04-01T17:08:06;11.70;1.00
3876;DHT22;1953;51.222;6.624;2023-04-01T17:12:56;11.70;1.00
3876;DHT22;1953;51.222;6.624;2023-04-01T17:17:49;11.70;1.00
3876;DHT22;1953;51.222;6.624;2023-04-01T17:22:40;11.70;1.00
3876;DHT22;1953;51.222;6.624;2023-04-01T17:27:35;11.70;1.00
3876;DHT22;1953;51.222;6.624;2023-04-01T17:32:29;11.60;1.00
3876;DHT22;1953;51.222;6.624;2023-04-01T17:37:38;11.60;1.00
3876;DHT22;1953;51.222;6.624;2023-04-01T17:42:26;11.60;1.00
3876;DHT22;1953;51.222;6.624;2023-04-01T17:47:44;11.60;1.00
3876;DHT22;1953;51.222;6.624;2023-04-01T17:52:33;12.20;1.00
3876;DHT22;1953;51.222;6.624;2023-04-01T17:57:38;11.60;1.00
3876;DHT22;1953;51.222;6.624;2023-04-01T18:02:27;11.50;1.00
3876;DHT22;1953;51.222;6.624;2023-04-01T18:07:47;11.50;1.00
3876;DHT22;1953;51.222;6.624;2023-04-01T18:12:38;11.40;1.00
3876;DHT22;1953;51.222;6.624;2023-04-01T18:17:24;11.40;1.00
3876;DHT22;1953;51.222;6.624;2023-04-01T18:22:16;11.30;1.00
3876;DHT22;1953;51.222;6.624;2023-04-01T18:27:06;11.40;1.00
3876;DHT22;1953;51.222;6.624;2023-04-01T18:32:00;11.30;1.00
3876;DHT22;1953;51.222;6.624;2023-04-01T18:36:53;11.30;1.00
3876;DHT22;1953;51.222;6.624;2023-04-01T18:41:48;11.30;1.00
3876;DHT22;1953;51.222;6.624;2023-04-01T18:46:38;11.20;1.00
3876;DHT22;1953;51.222;6.624;2023-04-01T18:51:26;11.20;1.00
3876;DHT22;1953;51.222;6.624;2023-04-01T18:56:24;11.30;1.00
3876;DHT22;1953;51.222;6.624;2023-04-01T19:01:22;11.20;1.00
3876;DHT22;1953;51.222;6.624;2023-04-01T19:06:17;11.20;1.00
3876;DHT22;1953;51.222;6.624;2023-04-01T19:11:11;11.20;1.00
3876;DHT22;1953;51.222;6.624;2023-04-01T19:16:02;11.20;1.00
3876;DHT22;1953;51.222;6.624;2023-04-01T19:20:50;11.20;1.00
3876;DHT22;1953;51.222;6.624;2023-04-01T19:25:40;11.20;1.00
3876;DHT22;1953;51.222;6.624;2023-04-01T19:30:35;11.20;1.00
3876;DHT22;1953;51.222;6.624;2023-04-01T19:35:31;11.20;1.00
3876;DHT22;1953;51.222;6.624;2023-04-01T19:40:34;10.80;1.00
3876;DHT22;1953;51.222;6.624;2023-04-01T19:45:29;11.10;1.00
3876;DHT22;1953;51.222;6.624;2023-04-01T19:50:26;11.10;1.00
3876;DHT22;1953;51.222;6.624;2023-04-01T19:55:26;11.10;1.00
3876;DHT22;1953;51.222;6.624;2023-04-01T20:00:18;11.10;1.00
3876;DHT22;1953;51.222;6.624;2023-04-01T20:05:22;11.20;1.00
3876;DHT22;1953;51.222;6.624;2023-04-01T20:10:09;11.20;1.00
3876;DHT22;1953;51.222;6.624;2023-04-01T20:14:57;11.20;1.00
3876;DHT22;1953;51.222;6.624;2023-04-01T20:19:43;11.20;1.00
3876;DHT22;1953;51.222;6.624;2023-04-01T20:24:33;11.20;1.00
3876;DHT22;1953;51.222;6.624;2023-04-01T20:29:39;11.10;1.00
3876;DHT22;1953;51.222;6.624;2023-04-01T20:34:36;11.20;1.00
3876;DHT22;1953;51.222;6.624;2023-04-01T20:44:44;11.30;1.00
3876;DHT22;1953;51.222;6.624;2023-04-01T20:49:39;11.40;1.00
3876;DHT22;1953;51.222;6.624;2023-04-01T20:54:39;11.40;1.00
3876;DHT22;1953;51.222;6.624;2023-04-01T20:59:41;11.40;1.00
3876;DHT22;1953;51.222;6.624;2023-04-01T21:04:30;11.30;1.00
3876;DHT22;1953;51.222;6.624;2023-04-01T21:09:26;11.30;1.00
3876;DHT22;1953;51.222;6.624;2023-04-01T21:14:35;11.30;1.00
3876;DHT22;1953;51.222;6.624;2023-04-01T21:19:36;11.20;1.00
3876;DHT22;1953;51.222;6.624;2023-04-01T21:24:54;11.10;1.00
3876;DHT22;1953;51.222;6.624;2023-04-01T21:29:55;11.00;1.00
3876;DHT22;1953;51.222;6.624;2023-04-01T21:34:43;11.00;1.00
3876;DHT22;1953;51.222;6.624;2023-04-01T21:39:41;10.90;1.00
3876;DHT22;1953;51.222;6.624;2023-04-01T21:44:43;10.90;1.00
3876;DHT22;1953;51.222;6.624;2023-04-01T21:49:57;10.90;1.00
3876;DHT22;1953;51.222;6.624;2023-04-01T21:55:23;10.80;1.00
3876;DHT22;1953;51.222;6.624;2023-04-01T22:00:17;10.70;1.00
3876;DHT22;1953;51.222;6.624;2023-04-01T22:05:06;10.60;1.00
3876;DHT22;1953;51.222;6.624;2023-04-01T22:09:58;10.50;1.00
3876;DHT22;1953;51.222;6.624;2023-04-01T22:14:46;10.40;1.00
3876;DHT22;1953;51.222;6.624;2023-04-01T22:19:39;10.40;1.00
3876;DHT22;1953;51.222;6.624;2023-04-01T22:24:34;10.40;1.00
3876;DHT22;1953;51.222;6.624;2023-04-01T22:29:23;10.40;1.00
3876;DHT22;1953;51.222;6.624;2023-04-01T22:34:12;10.30;1.00
3876;DHT22;1953;51.222;6.624;2023-04-01T22:39:20;10.30;1.00
3876;DHT22;1953;51.222;6.624;2023-04-01T22:44:15;10.30;1.00
3876;DHT22;1953;51.222;6.624;2023-04-01T22:49:06;10.20;1.00
3876;DHT22;1953;51.222;6.624;2023-04-01T22:54:02;10.00;1.00
3876;DHT22;1953;51.222;6.624;2023-04-01T22:58:52;10.00;1.00
3876;DHT22;1953;51.222;6.624;2023-04-01T23:03:40;9.90;1.00
3876;DHT22;1953;51.222;6.624;2023-04-01T23:13:39;9.70;1.00
3876;DHT22;1953;51.222;6.624;2023-04-01T23:18:27;9.80;1.00
3876;DHT22;1953;51.222;6.624;2023-04-01T23:23:24;9.80;1.00
3876;DHT22;1953;51.222;6.624;2023-04-01T23:28:28;9.70;1.00
3876;DHT22;1953;51.222;6.624;2023-04-01T23:33:20;9.60;1.00
3876;DHT22;1953;51.222;6.624;2023-04-01T23:38:03;9.50;1.00
3876;DHT22;1953;51.222;6.624;2023-04-01T23:42:47;9.50;1.00
3876;DHT22;1953;51.222;6.624;2023-04-01T23:47:32;9.50;1.00
3876;DHT22;1953;51.222;6.624;2023-04-01T23:52:20;9.30;1.00
3876;DHT22;1953;51.222;6.624;2023-04-01T23:57:09;9.20;1.00
